createdAt,value
2022-08-02T00:00:20.561Z,99.72
2022-08-02T00:01:20.634Z,99.16
2022-08-02T00:02:20.698Z,99.99
2022-08-02T00:03:20.531Z,99.99
2022-08-02T00:04:20.514Z,99.99
2022-08-02T00:05:20.505Z,99.99
2022-08-02T00:06:20.492Z,99.99
2022-08-02T00:07:20.484Z,99.99
2022-08-02T00:08:20.512Z,99.99
2022-08-02T00:09:20.457Z,99.99
2022-08-02T00:10:20.446Z,99.99
2022-08-02T00:11:20.438Z,99.99
2022-08-02T00:12:20.425Z,99.99
2022-08-02T00:13:20.422Z,99.99
2022-08-02T00:14:20.433Z,99.99
2022-08-02T00:15:20.393Z,99.99
2022-08-02T00:16:20.384Z,99.99
2022-08-02T00:17:21.374Z,99.99
2022-08-02T00:18:20.366Z,99.99
2022-08-02T00:19:20.352Z,99.99
2022-08-02T00:20:20.381Z,99.99
2022-08-02T00:21:20.329Z,99.99
2022-08-02T00:22:20.317Z,99.99
2022-08-02T00:23:20.351Z,99.99
2022-08-02T00:24:29.241Z,99.99
2022-08-02T00:25:21.286Z,99.99
2022-08-02T00:26:20.310Z,99.99
2022-08-02T00:27:20.262Z,99.99
2022-08-02T00:28:26.865Z,99.99
2022-08-02T00:29:21.240Z,99.99
2022-08-02T00:30:20.234Z,99.99
2022-08-02T00:31:20.305Z,99.99
2022-08-02T00:32:20.216Z,99.99
2022-08-02T00:34:26.723Z,99.99
2022-08-02T00:34:28.495Z,99.99
2022-08-02T00:35:21.176Z,99.99
2022-08-02T00:36:20.250Z,99.99
2022-08-02T00:37:20.182Z,99.99
2022-08-02T00:38:20.156Z,99.99
2022-08-02T00:39:20.128Z,99.99
2022-08-02T00:40:21.119Z,99.99
2022-08-02T00:41:20.113Z,99.99
2022-08-02T00:42:20.103Z,99.99
2022-08-02T00:43:20.106Z,99.99
2022-08-02T00:44:20.089Z,99.99
2022-08-02T00:45:20.062Z,99.99
2022-08-02T00:46:20.051Z,99.99
2022-08-02T00:47:20.097Z,99.99
2022-08-02T00:48:20.046Z,99.99
2022-08-02T00:49:21.359Z,99.99
2022-08-02T00:50:20.026Z,99.99
2022-08-02T00:51:20.000Z,99.99
2022-08-02T00:52:19.986Z,99.99
2022-08-02T00:53:19.987Z,99.99
2022-08-02T00:54:19.964Z,99.99
2022-08-02T00:55:30.834Z,99.99
2022-08-02T00:56:20.956Z,99.99
2022-08-02T00:57:19.954Z,99.99
2022-08-02T00:58:19.933Z,99.99
2022-08-02T00:59:19.927Z,99.99
2022-08-02T01:00:19.905Z,99.99
2022-08-02T01:01:19.950Z,99.99
2022-08-02T01:02:19.943Z,99.99
2022-08-02T01:03:19.879Z,99.99
2022-08-02T01:04:26.712Z,99.99
2022-08-02T01:05:20.861Z,99.99
2022-08-02T01:06:19.838Z,99.99
2022-08-02T01:07:19.847Z,99.99
2022-08-02T01:08:19.816Z,99.99
2022-08-02T01:09:20.816Z,99.99
2022-08-02T01:10:19.797Z,99.99
2022-08-02T01:11:19.795Z,99.99
2022-08-02T01:12:19.767Z,99.99
2022-08-02T01:13:19.800Z,99.99
2022-08-02T01:14:19.813Z,99.99
2022-08-02T01:15:19.739Z,99.99
2022-08-02T01:16:19.725Z,99.99
2022-08-02T01:17:19.718Z,99.99
2022-08-02T01:18:19.704Z,99.99
2022-08-02T01:19:19.746Z,99.99
2022-08-02T01:20:19.682Z,99.99
2022-08-02T01:21:19.672Z,99.99
2022-08-02T01:22:19.666Z,99.99
2022-08-02T01:23:19.664Z,99.99
2022-08-02T01:24:19.637Z,99.99
2022-08-02T01:25:19.673Z,99.99
2022-08-02T01:26:19.613Z,99.99
2022-08-02T01:27:19.608Z,99.99
2022-08-02T01:28:19.597Z,99.99
2022-08-02T01:29:19.583Z,99.99
2022-08-02T01:30:19.575Z,99.99
2022-08-02T01:31:19.600Z,99.99
2022-08-02T01:32:19.548Z,99.99
2022-08-02T01:33:19.553Z,99.99
2022-08-02T01:34:19.534Z,99.99
2022-08-02T01:35:19.521Z,99.99
2022-08-02T01:36:19.509Z,99.99
2022-08-02T01:37:19.534Z,99.99
2022-08-02T01:38:19.486Z,99.99
2022-08-02T01:39:26.648Z,99.99
2022-08-02T01:40:20.469Z,99.99
2022-08-02T01:41:19.469Z,99.99
2022-08-02T01:42:19.446Z,99.99
2022-08-02T01:43:19.449Z,99.99
2022-08-02T01:44:19.417Z,99.99
2022-08-02T01:45:20.412Z,99.99
2022-08-02T01:46:19.415Z,99.99
2022-08-02T01:47:19.389Z,99.99
2022-08-02T01:48:19.375Z,99.99
2022-08-02T01:49:19.454Z,99.99
2022-08-02T01:50:19.356Z,99.99
2022-08-02T01:51:19.353Z,99.99
2022-08-02T01:52:19.343Z,99.99
2022-08-02T01:53:19.325Z,99.99
2022-08-02T01:54:19.308Z,99.99
2022-08-02T01:55:19.381Z,99.99
2022-08-02T01:56:19.284Z,99.99
2022-08-02T01:57:19.288Z,99.99
2022-08-02T01:58:19.263Z,99.99
2022-08-02T01:59:19.263Z,99.99
2022-08-02T02:00:19.242Z,99.99
2022-08-02T02:01:19.426Z,99.99
2022-08-02T02:02:19.239Z,99.99
2022-08-02T02:03:19.214Z,99.99
2022-08-02T02:04:19.198Z,99.99
2022-08-02T02:05:19.190Z,99.99
2022-08-02T02:06:19.180Z,99.99
2022-08-02T02:07:19.193Z,99.99
2022-08-02T02:08:27.385Z,99.99
2022-08-02T02:09:20.186Z,99.99
2022-08-02T02:10:19.137Z,99.99
2022-08-02T02:12:08.645Z,99.99
2022-08-02T02:12:20.746Z,99.99
2022-08-02T02:13:19.138Z,99.99
2022-08-02T02:14:19.096Z,99.99
2022-08-02T02:15:19.084Z,99.99
2022-08-02T02:16:19.076Z,99.99
2022-08-02T02:18:11.865Z,99.99
2022-08-02T02:18:20.062Z,99.99
2022-08-02T02:19:20.944Z,99.99
2022-08-02T02:20:19.020Z,99.99
2022-08-02T02:21:19.012Z,99.99
2022-08-02T02:22:19.026Z,99.99
2022-08-02T02:23:19.002Z,99.99
2022-08-02T02:24:19.984Z,99.99
2022-08-02T02:25:18.984Z,99.99
2022-08-02T02:26:29.601Z,99.99
2022-08-02T02:27:19.960Z,99.99
2022-08-02T02:28:18.939Z,99.99
2022-08-02T02:29:18.927Z,99.99
2022-08-02T02:30:18.911Z,99.99
2022-08-02T02:31:18.921Z,99.99
2022-08-02T02:32:18.888Z,99.99
2022-08-02T02:33:18.911Z,99.99
2022-08-02T02:34:18.865Z,99.99
2022-08-02T02:35:18.860Z,99.99
2022-08-02T02:36:18.846Z,99.99
2022-08-02T02:37:18.882Z,99.99
2022-08-02T02:38:18.824Z,99.99
2022-08-02T02:39:18.830Z,99.99
2022-08-02T02:40:18.804Z,99.99
2022-08-02T02:41:18.867Z,99.99
2022-08-02T02:42:18.780Z,99.99
2022-08-02T02:43:18.822Z,99.99
2022-08-02T02:44:18.760Z,99.99
2022-08-02T02:45:18.771Z,99.99
2022-08-02T02:46:18.735Z,99.99
2022-08-02T02:47:18.741Z,99.99
2022-08-02T02:48:18.721Z,99.99
2022-08-02T02:49:18.798Z,99.99
2022-08-02T02:50:18.700Z,99.99
2022-08-02T02:51:18.685Z,99.99
2022-08-02T02:52:18.777Z,99.99
2022-08-02T02:53:18.660Z,99.99
2022-08-02T02:54:32.328Z,99.99
2022-08-02T02:55:19.676Z,99.99
2022-08-02T02:56:18.631Z,99.99
2022-08-02T02:57:18.619Z,99.99
2022-08-02T02:58:18.617Z,99.99
2022-08-02T02:59:18.603Z,99.99
2022-08-02T03:00:18.585Z,99.99
2022-08-02T03:01:18.701Z,99.99
2022-08-02T03:02:18.566Z,99.99
2022-08-02T03:03:19.725Z,99.99
2022-08-02T03:04:18.541Z,99.99
2022-08-02T03:05:18.528Z,99.99
2022-08-02T03:06:18.518Z,99.99
2022-08-02T03:07:18.521Z,99.99
2022-08-02T03:08:18.499Z,99.99
2022-08-02T03:09:18.500Z,99.99
2022-08-02T03:10:18.470Z,99.99
2022-08-02T03:11:18.460Z,99.99
2022-08-02T03:12:20.113Z,99.99
2022-08-02T03:13:18.467Z,99.99
2022-08-02T03:14:18.431Z,99.99
2022-08-02T03:15:18.430Z,99.99
2022-08-02T03:16:18.408Z,99.99
2022-08-02T03:17:18.396Z,99.99
2022-08-02T03:18:18.386Z,99.99
2022-08-02T03:19:18.394Z,99.99
2022-08-02T03:20:18.378Z,99.99
2022-08-02T03:21:18.370Z,99.99
2022-08-02T03:22:18.340Z,99.99
2022-08-02T03:23:18.370Z,99.99
2022-08-02T03:24:28.102Z,99.99
2022-08-02T03:25:19.336Z,99.99
2022-08-02T03:26:18.303Z,99.99
2022-08-02T03:27:18.298Z,99.99
2022-08-02T03:28:18.279Z,99.99
2022-08-02T03:29:18.266Z,99.99
2022-08-02T03:30:18.265Z,99.99
2022-08-02T03:31:18.250Z,99.99
2022-08-02T03:32:18.233Z,99.99
2022-08-02T03:33:18.248Z,99.99
2022-08-02T03:34:18.205Z,99.99
2022-08-02T03:35:23.300Z,99.99
2022-08-02T03:36:19.210Z,99.99
2022-08-02T03:37:18.232Z,99.99
2022-08-02T03:38:18.167Z,99.99
2022-08-02T03:39:18.193Z,99.99
2022-08-02T03:40:18.157Z,99.99
2022-08-02T03:41:18.136Z,99.99
2022-08-02T03:42:18.124Z,99.99
2022-08-02T03:43:18.132Z,99.99
2022-08-02T03:44:18.095Z,99.99
2022-08-02T03:45:18.110Z,99.99
2022-08-02T03:46:18.079Z,99.99
2022-08-02T03:47:18.065Z,99.99
2022-08-02T03:48:33.746Z,99.99
2022-08-02T03:49:19.113Z,99.99
2022-08-02T03:50:18.029Z,99.99
2022-08-02T03:51:18.017Z,99.99
2022-08-02T03:52:18.023Z,99.99
2022-08-02T03:53:20.187Z,99.99
2022-08-02T03:54:18.002Z,99.99
2022-08-02T03:55:17.980Z,99.99
2022-08-02T03:56:17.962Z,99.99
2022-08-02T03:57:17.949Z,99.99
2022-08-02T03:58:17.963Z,99.99
2022-08-02T03:59:17.939Z,99.99
2022-08-02T04:00:17.922Z,99.99
2022-08-02T04:01:17.959Z,99.99
2022-08-02T04:02:17.894Z,99.99
2022-08-02T04:03:20.027Z,99.99
2022-08-02T04:04:17.922Z,99.99
2022-08-02T04:05:17.862Z,99.99
2022-08-02T04:06:17.855Z,99.99
2022-08-02T04:08:34.409Z,99.99
2022-08-02T04:08:35.965Z,99.99
2022-08-02T04:09:18.827Z,99.99
2022-08-02T04:10:17.857Z,99.99
2022-08-02T04:11:17.802Z,99.99
2022-08-02T04:12:17.786Z,99.99
2022-08-02T04:13:17.766Z,99.99
2022-08-02T04:14:17.767Z,99.99
2022-08-02T04:15:17.745Z,99.99
2022-08-02T04:16:17.775Z,99.99
2022-08-02T04:17:17.725Z,99.99
2022-08-02T04:18:17.731Z,99.99
2022-08-02T04:19:17.697Z,99.99
2022-08-02T04:20:17.692Z,99.99
2022-08-02T04:21:17.677Z,99.99
2022-08-02T04:22:17.705Z,99.99
2022-08-02T04:23:17.655Z,99.99
2022-08-02T04:24:18.749Z,99.99
2022-08-02T04:25:17.709Z,99.99
2022-08-02T04:26:17.641Z,99.99
2022-08-02T04:27:48.940Z,99.99
2022-08-02T04:28:18.695Z,99.99
2022-08-02T04:29:18.596Z,99.99
2022-08-02T04:30:17.579Z,99.99
2022-08-02T04:31:17.566Z,99.99
2022-08-02T04:32:17.554Z,99.99
2022-08-02T04:33:17.557Z,99.99
2022-08-02T04:34:17.546Z,99.99
2022-08-02T04:35:20.016Z,99.99
2022-08-02T04:36:31.683Z,99.99
2022-08-02T04:37:18.516Z,99.99
2022-08-02T04:38:17.491Z,99.99
2022-08-02T04:39:17.474Z,99.99
2022-08-02T04:40:17.482Z,99.99
2022-08-02T04:41:17.450Z,99.99
2022-08-02T04:42:17.445Z,99.99
2022-08-02T04:43:17.445Z,99.99
2022-08-02T04:44:17.431Z,99.99
2022-08-02T04:45:17.418Z,99.99
2022-08-02T04:46:17.407Z,99.99
2022-08-02T04:47:29.569Z,99.99
2022-08-02T04:48:18.479Z,99.99
2022-08-02T04:49:17.438Z,99.99
2022-08-02T04:50:17.354Z,99.99
2022-08-02T04:51:17.450Z,99.99
2022-08-02T04:52:17.330Z,99.99
2022-08-02T04:53:17.348Z,99.99
2022-08-02T04:54:17.332Z,99.99
2022-08-02T04:55:17.297Z,99.99
2022-08-02T04:56:17.301Z,99.99
2022-08-02T04:57:17.273Z,99.99
2022-08-02T04:58:39.942Z,99.99
2022-08-02T04:59:18.305Z,99.99
2022-08-02T05:00:17.299Z,99.99
2022-08-02T05:01:17.301Z,99.99
2022-08-02T05:02:17.235Z,99.99
2022-08-02T05:03:17.209Z,99.99
2022-08-02T05:04:17.210Z,99.99
2022-08-02T05:05:17.216Z,98.60
2022-08-02T05:06:19.160Z,95.54
2022-08-02T05:07:17.171Z,96.92
2022-08-02T05:08:17.162Z,96.62
2022-08-02T05:09:17.161Z,97.29
2022-08-02T05:10:17.880Z,96.17
2022-08-02T05:11:17.122Z,95.50
2022-08-02T05:12:17.615Z,95.66
2022-08-02T05:13:17.101Z,95.25
2022-08-02T05:14:17.101Z,96.72
2022-08-02T05:15:17.074Z,97.53
2022-08-02T05:16:17.069Z,99.74
2022-08-02T05:17:17.057Z,98.57
2022-08-02T05:18:17.140Z,95.94
2022-08-02T05:19:17.045Z,94.90
2022-08-02T05:20:17.031Z,96.87
2022-08-02T05:21:17.019Z,99.30
2022-08-02T05:22:17.001Z,99.99
2022-08-02T05:23:16.990Z,99.99
2022-08-02T05:24:17.016Z,99.99
2022-08-02T05:25:16.978Z,99.99
2022-08-02T05:26:16.956Z,99.99
2022-08-02T05:27:21.820Z,99.99
2022-08-02T05:28:17.940Z,99.99
2022-08-02T05:29:16.925Z,99.99
2022-08-02T05:30:16.928Z,99.99
2022-08-02T05:31:16.922Z,99.86
2022-08-02T05:32:16.888Z,99.56
2022-08-02T05:33:16.882Z,99.01
2022-08-02T05:34:16.867Z,98.09
2022-08-02T05:35:16.862Z,96.41
2022-08-02T05:36:16.864Z,96.55
2022-08-02T05:37:16.891Z,97.53
2022-08-02T05:38:16.824Z,95.61
2022-08-02T05:39:19.038Z,94.13
2022-08-02T05:40:16.803Z,93.44
2022-08-02T05:41:16.795Z,94.25
2022-08-02T05:42:16.785Z,93.41
2022-08-02T05:43:16.810Z,93.10
2022-08-02T05:44:16.760Z,91.08
2022-08-02T05:45:16.746Z,91.52
2022-08-02T05:46:16.759Z,92.44
2022-08-02T05:47:16.726Z,91.02
2022-08-02T05:48:16.725Z,92.68
2022-08-02T05:49:16.790Z,93.90
2022-08-02T05:50:16.690Z,91.20
2022-08-02T05:51:16.687Z,90.92
2022-08-02T05:52:16.722Z,89.86
2022-08-02T05:53:16.657Z,89.76
2022-08-02T05:54:16.657Z,91.50
2022-08-02T05:55:16.685Z,93.54
2022-08-02T05:56:16.637Z,90.50
2022-08-02T05:57:16.650Z,89.94
2022-08-02T05:58:16.607Z,90.54
2022-08-02T05:59:16.604Z,90.58
2022-08-02T06:00:16.596Z,91.55
2022-08-02T06:01:16.612Z,91.70
2022-08-02T06:02:16.648Z,90.67
2022-08-02T06:03:16.566Z,91.73
2022-08-02T06:04:16.540Z,93.00
2022-08-02T06:05:16.540Z,92.76
2022-08-02T06:06:16.528Z,92.61
2022-08-02T06:07:16.508Z,90.69
2022-08-02T06:08:16.504Z,92.67
2022-08-02T06:09:16.533Z,91.96
2022-08-02T06:10:17.475Z,89.06
2022-08-02T06:11:16.463Z,91.60
2022-08-02T06:12:16.770Z,91.60
2022-08-02T06:13:16.439Z,91.09
2022-08-02T06:14:16.429Z,90.18
2022-08-02T06:15:16.465Z,91.15
2022-08-02T06:16:16.408Z,90.02
2022-08-02T06:17:16.392Z,92.51
2022-08-02T06:18:16.392Z,92.00
2022-08-02T06:19:16.380Z,92.55
2022-08-02T06:20:16.377Z,94.13
2022-08-02T06:22:31.513Z,92.51
2022-08-02T06:22:35.977Z,90.69
2022-08-02T06:23:17.333Z,88.29
2022-08-02T06:24:16.321Z,91.24
2022-08-02T06:25:49.902Z,90.44
2022-08-02T06:26:17.299Z,89.57
2022-08-02T06:27:16.302Z,88.66
2022-08-02T06:28:16.279Z,88.35
2022-08-02T06:29:16.293Z,88.98
2022-08-02T06:30:16.275Z,89.14
2022-08-02T06:31:16.255Z,88.49
2022-08-02T06:32:16.236Z,86.57
2022-08-02T06:33:16.258Z,89.40
2022-08-02T06:34:16.222Z,87.24
2022-08-02T06:35:16.209Z,85.93
2022-08-02T06:36:16.218Z,87.74
2022-08-02T06:37:16.179Z,87.58
2022-08-02T06:38:16.166Z,87.73
2022-08-02T06:39:16.161Z,88.27
2022-08-02T06:40:16.175Z,89.14
2022-08-02T06:41:16.139Z,88.23
2022-08-02T06:42:16.159Z,88.09
2022-08-02T06:43:16.168Z,89.36
2022-08-02T06:45:17.098Z,90.03
2022-08-02T06:46:38.075Z,89.56
2022-08-02T06:47:17.087Z,90.88
2022-08-02T06:48:16.073Z,87.74
2022-08-02T06:49:16.159Z,86.69
2022-08-02T06:50:16.040Z,86.90
2022-08-02T06:51:16.023Z,89.68
2022-08-02T06:52:18.972Z,88.73
2022-08-02T06:53:16.017Z,86.29
2022-08-02T06:54:16.000Z,87.68
2022-08-02T06:55:15.973Z,89.36
2022-08-02T06:56:15.970Z,88.81
2022-08-02T06:57:15.957Z,87.70
2022-08-02T06:58:15.944Z,88.10
2022-08-02T06:59:15.998Z,88.06
2022-08-02T07:00:15.957Z,88.92
2022-08-02T07:01:15.962Z,89.46
2022-08-02T07:02:15.918Z,89.81
2022-08-02T07:03:15.890Z,89.20
2022-08-02T07:04:19.927Z,89.10
2022-08-02T07:05:15.895Z,89.06
2022-08-02T07:06:15.864Z,87.44
2022-08-02T07:07:15.870Z,90.12
2022-08-02T07:08:15.839Z,87.90
2022-08-02T07:09:20.935Z,88.61
2022-08-02T07:10:16.855Z,88.01
2022-08-02T07:11:15.805Z,88.77
2022-08-02T07:12:15.790Z,87.90
2022-08-02T07:13:15.774Z,87.90
2022-08-02T07:14:15.762Z,87.84
2022-08-02T07:15:15.768Z,88.67
2022-08-02T07:16:15.762Z,89.09
2022-08-02T07:17:15.763Z,88.12
2022-08-02T07:18:15.721Z,88.68
2022-08-02T07:19:15.717Z,86.93
2022-08-02T07:20:15.709Z,87.12
2022-08-02T07:21:15.705Z,89.48
2022-08-02T07:22:16.114Z,87.70
2022-08-02T07:23:15.669Z,87.88
2022-08-02T07:24:15.679Z,89.65
2022-08-02T07:25:15.650Z,89.61
2022-08-02T07:26:15.635Z,88.29
2022-08-02T07:27:15.696Z,89.40
2022-08-02T07:28:24.059Z,88.55
2022-08-02T07:29:16.607Z,87.40
2022-08-02T07:30:15.607Z,88.12
2022-08-02T07:31:15.576Z,87.50
2022-08-02T07:32:15.936Z,90.43
2022-08-02T07:33:37.339Z,88.26
2022-08-02T07:34:16.549Z,90.91
2022-08-02T07:35:16.348Z,88.65
2022-08-02T07:36:16.980Z,87.60
2022-08-02T07:37:35.485Z,86.58
2022-08-02T07:38:16.502Z,86.79
2022-08-02T07:39:29.143Z,87.78
2022-08-02T07:40:20.296Z,87.15
2022-08-02T07:41:16.475Z,89.68
2022-08-02T07:42:15.454Z,90.55
2022-08-02T07:43:15.448Z,88.54
2022-08-02T07:44:31.019Z,89.51
2022-08-02T07:45:31.021Z,87.70
2022-08-02T07:46:31.017Z,86.33
2022-08-02T07:47:30.985Z,87.40
2022-08-02T07:48:31.019Z,87.65
2022-08-02T07:49:31.054Z,88.22
2022-08-02T07:50:30.953Z,86.55
2022-08-02T07:51:30.979Z,85.74
2022-08-02T07:52:30.955Z,86.79
2022-08-02T07:53:50.142Z,89.17
2022-08-02T07:54:31.925Z,89.79
2022-08-02T07:55:39.095Z,86.41
2022-08-02T07:56:31.894Z,88.40
2022-08-02T07:57:30.946Z,88.40
2022-08-02T07:58:30.884Z,87.03
2022-08-02T07:59:30.906Z,89.19
2022-08-02T08:00:30.841Z,89.64
2022-08-02T08:01:30.950Z,88.99
2022-08-02T08:02:30.929Z,91.01
2022-08-02T08:03:30.816Z,89.05
2022-08-02T08:04:30.806Z,89.45
2022-08-02T08:05:30.814Z,89.34
2022-08-02T08:06:30.782Z,89.29
2022-08-02T08:07:30.780Z,89.05
2022-08-02T08:08:30.781Z,88.18
2022-08-02T08:09:30.747Z,89.29
2022-08-02T08:10:30.733Z,85.19
2022-08-02T08:11:30.733Z,89.74
2022-08-02T08:12:30.723Z,89.29
2022-08-02T08:13:30.711Z,89.35
2022-08-02T08:14:30.704Z,86.99
2022-08-02T08:15:30.694Z,87.74
2022-08-02T08:16:30.674Z,87.74
2022-08-02T08:17:30.664Z,86.53
2022-08-02T08:18:30.659Z,89.57
2022-08-02T08:19:34.895Z,85.30
2022-08-02T08:20:31.731Z,84.39
2022-08-02T08:21:30.749Z,83.83
2022-08-02T08:22:30.610Z,82.71
2022-08-02T08:23:30.594Z,86.95
2022-08-02T08:24:30.600Z,85.08
2022-08-02T08:25:30.660Z,86.95
2022-08-02T08:26:31.575Z,86.18
2022-08-02T08:27:30.566Z,89.26
2022-08-02T08:28:30.565Z,85.80
2022-08-02T08:29:30.554Z,84.80
2022-08-02T08:30:30.554Z,85.60
2022-08-02T08:31:30.520Z,85.40
2022-08-02T08:32:30.551Z,86.21
2022-08-02T08:33:30.524Z,84.83
2022-08-02T08:34:30.478Z,86.10
2022-08-02T08:35:30.502Z,87.07
2022-08-02T08:36:30.463Z,84.39
2022-08-02T08:37:30.478Z,84.09
2022-08-02T08:38:30.469Z,85.30
2022-08-02T08:39:30.467Z,84.63
2022-08-02T08:40:30.418Z,85.88
2022-08-02T08:41:30.414Z,86.15
2022-08-02T08:42:30.498Z,85.17
2022-08-02T08:43:30.379Z,84.77
2022-08-02T08:44:30.432Z,85.34
2022-08-02T08:45:30.363Z,84.09
2022-08-02T08:46:30.642Z,84.53
2022-08-02T08:47:33.561Z,85.70
2022-08-02T08:48:31.892Z,86.46
2022-08-02T08:49:30.367Z,86.06
2022-08-02T08:50:32.252Z,84.75
2022-08-02T08:51:30.293Z,82.84
2022-08-02T08:52:30.314Z,82.94
2022-08-02T08:53:36.691Z,82.14
2022-08-02T08:54:31.315Z,83.34
2022-08-02T08:55:30.244Z,85.31
2022-08-02T08:56:30.240Z,84.97
2022-08-02T08:57:30.225Z,83.40
2022-08-02T08:58:30.235Z,85.56
2022-08-02T08:59:30.202Z,87.59
2022-08-02T09:00:31.202Z,80.79
2022-08-02T09:01:49.735Z,83.00
2022-08-02T09:02:31.328Z,85.48
2022-08-02T09:03:34.038Z,80.37
2022-08-02T09:04:30.173Z,80.57
2022-08-02T09:05:30.147Z,81.74
2022-08-02T09:06:30.133Z,80.88
2022-08-02T09:07:30.127Z,80.91
2022-08-02T09:08:30.114Z,79.61
2022-08-02T09:09:30.228Z,80.41
2022-08-02T09:10:30.187Z,78.60
2022-08-02T09:11:30.079Z,79.63
2022-08-02T09:12:30.089Z,79.63
2022-08-02T09:13:38.086Z,79.97
2022-08-02T09:14:31.069Z,81.54
2022-08-02T09:15:30.033Z,83.27
2022-08-02T09:16:30.032Z,81.42
2022-08-02T09:17:30.029Z,78.28
2022-08-02T09:18:30.021Z,78.78
2022-08-02T09:19:29.989Z,78.79
2022-08-02T09:20:30.874Z,81.36
2022-08-02T09:21:30.027Z,79.25
2022-08-02T09:22:29.958Z,77.98
2022-08-02T09:23:29.956Z,77.98
2022-08-02T09:24:31.744Z,77.81
2022-08-02T09:25:29.936Z,79.36
2022-08-02T09:26:29.925Z,80.02
2022-08-02T09:27:29.902Z,80.04
2022-08-02T09:28:29.892Z,77.70
2022-08-02T09:29:29.904Z,80.23
2022-08-02T09:30:29.882Z,73.83
2022-08-02T09:31:29.886Z,76.34
2022-08-02T09:32:29.848Z,79.05
2022-08-02T09:33:29.958Z,80.18
2022-08-02T09:34:29.827Z,79.24
2022-08-02T09:35:29.872Z,76.28
2022-08-02T09:36:30.815Z,77.51
2022-08-02T09:37:29.797Z,77.81
2022-08-02T09:38:29.792Z,76.57
2022-08-02T09:39:29.767Z,77.08
2022-08-02T09:40:29.762Z,74.54
2022-08-02T09:41:29.784Z,76.60
2022-08-02T09:42:30.634Z,76.90
2022-08-02T09:43:29.736Z,73.00
2022-08-02T09:44:29.722Z,75.96
2022-08-02T09:45:29.706Z,78.47
2022-08-02T09:46:29.700Z,71.03
2022-08-02T09:47:31.120Z,72.89
2022-08-02T09:48:29.671Z,74.84
2022-08-02T09:49:29.695Z,73.13
2022-08-02T09:50:29.650Z,74.57
2022-08-02T09:51:29.652Z,73.90
2022-08-02T09:52:37.050Z,76.17
2022-08-02T09:53:30.645Z,75.87
2022-08-02T09:54:29.619Z,76.11
2022-08-02T09:55:29.601Z,75.63
2022-08-02T09:56:35.514Z,76.40
2022-08-02T09:57:30.623Z,71.93
2022-08-02T09:58:29.563Z,73.86
2022-08-02T09:59:29.589Z,72.90
2022-08-02T10:00:51.665Z,77.41
2022-08-02T10:01:37.009Z,74.01
2022-08-02T10:02:30.605Z,75.37
2022-08-02T10:03:35.119Z,76.60
2022-08-02T10:04:30.902Z,74.46
2022-08-02T10:05:29.487Z,75.33
2022-08-02T10:06:29.485Z,72.63
2022-08-02T10:07:29.491Z,73.93
2022-08-02T10:08:29.457Z,72.79
2022-08-02T10:09:29.468Z,69.23
2022-08-02T10:10:29.542Z,74.93
2022-08-02T10:11:29.425Z,72.83
2022-08-02T10:12:29.410Z,71.62
2022-08-02T10:13:29.416Z,71.33
2022-08-02T10:14:29.404Z,71.03
2022-08-02T10:15:29.380Z,70.79
2022-08-02T10:16:29.381Z,70.79
2022-08-02T10:17:29.389Z,70.83
2022-08-02T10:18:38.690Z,73.25
2022-08-02T10:20:03.048Z,70.53
2022-08-02T10:20:30.323Z,70.53
2022-08-02T10:21:29.335Z,68.43
2022-08-02T10:22:29.319Z,68.46
2022-08-02T10:23:29.295Z,68.10
2022-08-02T10:24:29.331Z,68.66
2022-08-02T10:25:29.386Z,67.86
2022-08-02T10:26:29.265Z,68.56
2022-08-02T10:27:42.974Z,69.13
2022-08-02T10:28:30.251Z,66.17
2022-08-02T10:29:29.231Z,68.46
2022-08-02T10:30:30.234Z,64.17
2022-08-02T10:31:29.219Z,65.30
2022-08-02T10:32:29.205Z,66.47
2022-08-02T10:33:29.212Z,68.40
2022-08-02T10:34:31.825Z,66.20
2022-08-02T10:35:29.164Z,62.91
2022-08-02T10:36:29.192Z,67.40
2022-08-02T10:37:29.163Z,66.57
2022-08-02T10:38:29.135Z,65.94
2022-08-02T10:39:29.205Z,63.82
2022-08-02T10:40:29.117Z,67.47
2022-08-02T10:41:29.102Z,64.69
2022-08-02T10:42:29.101Z,66.57
2022-08-02T10:43:29.091Z,63.22
2022-08-02T10:44:29.078Z,59.14
2022-08-02T10:45:29.087Z,64.25
2022-08-02T10:46:29.046Z,61.03
2022-08-02T10:47:29.042Z,60.73
2022-08-02T10:48:29.045Z,62.23
2022-08-02T10:49:44.463Z,60.13
2022-08-02T10:50:30.028Z,62.92
2022-08-02T10:51:31.873Z,61.47
2022-08-02T10:52:29.977Z,59.08
2022-08-02T10:53:28.977Z,57.94
2022-08-02T10:54:28.982Z,60.69
2022-08-02T10:55:28.958Z,59.36
2022-08-02T10:56:28.950Z,64.01
2022-08-02T10:57:28.944Z,56.62
2022-08-02T10:58:29.410Z,56.92
2022-08-02T10:59:28.906Z,60.90
2022-08-02T11:00:28.906Z,61.46
2022-08-02T11:01:38.770Z,60.63
2022-08-02T11:02:29.886Z,57.47
2022-08-02T11:03:28.870Z,57.07
2022-08-02T11:04:28.850Z,62.01
2022-08-02T11:05:28.859Z,59.99
2022-08-02T11:06:29.841Z,60.49
2022-08-02T11:07:28.820Z,61.06
2022-08-02T11:08:28.816Z,61.03
2022-08-02T11:09:32.314Z,62.29
2022-08-02T11:10:28.790Z,58.39
2022-08-02T11:11:53.875Z,56.65
2022-08-02T11:12:29.775Z,57.17
2022-08-02T11:13:28.766Z,60.66
2022-08-02T11:14:28.741Z,58.84
2022-08-02T11:15:28.735Z,59.74
2022-08-02T11:16:28.719Z,56.27
2022-08-02T11:17:28.744Z,60.13
2022-08-02T11:18:29.702Z,58.94
2022-08-02T11:19:28.700Z,58.04
2022-08-02T11:20:28.673Z,59.53
2022-08-02T11:21:28.670Z,57.47
2022-08-02T11:22:28.662Z,61.33
2022-08-02T11:23:44.129Z,57.42
2022-08-02T11:24:29.644Z,59.31
2022-08-02T11:25:43.022Z,59.21
2022-08-02T11:26:29.626Z,59.51
2022-08-02T11:27:28.618Z,61.17
2022-08-02T11:28:28.635Z,61.77
2022-08-02T11:29:28.592Z,59.35
2022-08-02T11:30:28.592Z,55.74
2022-08-02T11:31:28.557Z,56.84
2022-08-02T11:32:31.284Z,57.64
2022-08-02T11:33:28.552Z,59.59
2022-08-02T11:34:36.813Z,56.14
2022-08-02T11:35:29.621Z,60.14
2022-08-02T11:36:28.544Z,60.78
2022-08-02T11:37:28.503Z,59.19
2022-08-02T11:38:28.494Z,60.26
2022-08-02T11:39:28.496Z,58.92
2022-08-02T11:40:28.471Z,60.44
2022-08-02T11:41:46.516Z,57.36
2022-08-02T11:42:29.461Z,58.95
2022-08-02T11:43:28.430Z,58.33
2022-08-02T11:44:28.433Z,58.33
2022-08-02T11:45:29.957Z,56.37
2022-08-02T11:46:28.431Z,56.52
2022-08-02T11:47:28.393Z,57.49
2022-08-02T11:48:28.377Z,58.75
2022-08-02T11:49:28.424Z,57.56
2022-08-02T11:50:30.148Z,56.67
2022-08-02T11:51:28.357Z,58.65
2022-08-02T11:52:28.351Z,53.88
2022-08-02T11:53:28.331Z,56.72
2022-08-02T11:54:28.337Z,56.30
2022-08-02T11:55:28.312Z,59.62
2022-08-02T11:56:28.313Z,54.28
2022-08-02T11:57:28.296Z,54.88
2022-08-02T11:58:29.268Z,57.53
2022-08-02T11:59:28.271Z,54.25
2022-08-02T12:00:30.889Z,53.51
2022-08-02T12:01:28.247Z,52.69
2022-08-02T12:02:28.771Z,52.49
2022-08-02T12:03:28.287Z,56.32
2022-08-02T12:04:28.270Z,55.30
2022-08-02T12:06:03.045Z,56.15
2022-08-02T12:06:29.192Z,57.89
2022-08-02T12:07:31.958Z,59.09
2022-08-02T12:08:29.187Z,54.08
2022-08-02T12:09:28.161Z,55.50
2022-08-02T12:10:28.144Z,58.06
2022-08-02T12:11:28.153Z,55.05
2022-08-02T12:12:29.137Z,55.25
2022-08-02T12:13:28.136Z,58.43
2022-08-02T12:14:28.145Z,58.60
2022-08-02T12:15:28.092Z,59.07
2022-08-02T12:16:28.084Z,55.27
2022-08-02T12:17:28.072Z,57.45
2022-08-02T12:18:28.097Z,54.17
2022-08-02T12:19:28.063Z,56.34
2022-08-02T12:20:28.066Z,59.08
2022-08-02T12:21:28.031Z,52.61
2022-08-02T12:22:28.021Z,51.05
2022-08-02T12:23:28.014Z,51.20
2022-08-02T12:24:28.011Z,53.48
2022-08-02T12:25:34.598Z,53.91
2022-08-02T12:26:28.991Z,52.31
2022-08-02T12:27:27.976Z,50.90
2022-08-02T12:28:27.965Z,53.28
2022-08-02T12:29:57.653Z,55.62
2022-08-02T12:30:28.935Z,56.49
2022-08-02T12:31:27.921Z,56.83
2022-08-02T12:32:27.912Z,51.75
2022-08-02T12:33:28.024Z,48.30
2022-08-02T12:34:31.396Z,55.27
2022-08-02T12:35:27.883Z,55.27
2022-08-02T12:36:27.899Z,53.45
2022-08-02T12:37:27.859Z,56.73
2022-08-02T12:38:27.847Z,50.38
2022-08-02T12:39:31.455Z,49.81
2022-08-02T12:40:27.843Z,54.15
2022-08-02T12:41:31.094Z,53.03
2022-08-02T12:42:27.808Z,51.28
2022-08-02T12:43:27.806Z,55.83
2022-08-02T12:44:27.789Z,54.42
2022-08-02T12:45:40.016Z,54.92
2022-08-02T12:46:28.782Z,55.71
2022-08-02T12:47:31.389Z,55.19
2022-08-02T12:48:36.306Z,51.62
2022-08-02T12:49:28.806Z,54.49
2022-08-02T12:50:27.722Z,52.81
2022-08-02T12:51:56.390Z,54.20
2022-08-02T12:52:28.702Z,55.58
2022-08-02T12:53:27.686Z,56.48